Time;durP1;ratioP1;P1;durP2;ratioP2;P2;SDS_P1;SDS_P2;PMS_P1;PMS_P2;Temp;Humidity;BMP_temperature;BMP_pressure;BME280_temperature;BME280_humidity;BME280_pressure;Samples;Min_cycle;Max_cycle;Signal;HPM_P1;HPM_P2
2022/05/16 00:01:38;;;;;;;8.70;2.42;;;;;;;11.01;99.10;100113.06;4979422;28;20496;-92
2022/05/16 00:04:23;;;;;;;7.05;2.75;;;;;;;11.00;99.14;100113.97;4990285;28;20046;-94
2022/05/16 00:07:08;;;;;;;9.52;2.50;;;;;;;10.95;98.67;100105.31;4977823;28;20077;-93
2022/05/16 00:09:52;;;;;;;7.57;2.28;;;;;;;10.89;98.81;100097.63;4977018;28;20116;-94
2022/05/16 00:12:38;;;;;;;7.40;2.78;;;;;;;10.79;100.00;100098.69;4986502;28;20040;-93
2022/05/16 00:15:24;;;;;;;9.70;2.30;;;;;;;10.77;99.64;100099.59;4993944;28;20481;-93
2022/05/16 00:18:09;;;;;;;5.95;2.58;;;;;;;10.81;99.18;100097.78;4985617;28;20038;-93
2022/05/16 00:20:56;;;;;;;9.88;2.72;;;;;;;10.71;100.00;100091.00;4991038;28;20042;-94
2022/05/16 00:23:41;;;;;;;6.50;2.45;;;;;;;10.66;100.00;100098.09;4989575;28;20038;-93
2022/05/16 00:26:25;;;;;;;7.30;2.47;;;;;;;10.70;99.56;100099.78;4988893;28;20053;-93
2022/05/16 00:29:09;;;;;;;6.85;2.22;;;;;;;10.61;100.00;100100.81;4993665;28;20045;-93
2022/05/16 00:31:54;;;;;;;6.78;2.97;;;;;;;10.63;99.60;100093.78;4992874;28;20447;-93
2022/05/16 00:34:39;;;;;;;5.78;2.22;;;;;;;10.51;100.00;100097.53;4990440;28;20034;-94
2022/05/16 00:37:24;;;;;;;4.78;2.40;;;;;;;10.48;100.00;100092.34;4990035;28;20039;-94
2022/05/16 00:40:11;;;;;;;9.18;2.55;;;;;;;10.51;100.00;100100.13;4985849;28;20121;-94
2022/05/16 00:43:14;;;;;;;8.57;2.33;;;;;;;10.39;100.00;100096.91;4984769;28;20117;-94
2022/05/16 00:45:59;;;;;;;8.30;2.90;;;;;;;10.36;100.00;100100.44;4992800;28;20049;-94
2022/05/16 00:48:43;;;;;;;5.03;2.33;;;;;;;10.39;100.00;100095.13;4971292;28;20042;-94
2022/05/16 00:51:35;;;;;;;6.35;2.45;;;;;;;10.32;100.00;100097.91;4991431;28;20043;-93
2022/05/16 00:54:28;;;;;;;5.10;2.25;;;;;;;10.35;100.00;100101.34;4992090;28;20038;-94
2022/05/16 00:57:17;;;;;;;9.00;3.20;;;;;;;10.38;100.00;100103.91;4975543;28;20034;-94
2022/05/16 01:00:27;;;;;;;6.03;1.95;;;;;;;10.35;100.00;100114.44;5009563;28;20537;-94
2022/05/16 01:06:24;;;;;;;9.52;3.03;;;;;;;10.34;100.00;100111.84;4985598;28;20042;-94
2022/05/16 01:09:13;;;;;;;6.32;2.30;;;;;;;10.32;100.00;100095.28;4991496;28;20508;-95
2022/05/16 01:11:58;;;;;;;5.18;1.88;;;;;;;10.23;100.00;100098.91;4983229;28;20470;-94
2022/05/16 01:14:54;;;;;;;5.88;2.15;;;;;;;10.29;100.00;100109.31;4976771;28;20045;-93
2022/05/16 01:17:38;;;;;;;8.55;2.42;;;;;;;10.19;100.00;100100.72;5016856;28;20115;-94
2022/05/16 01:20:41;;;;;;;5.18;2.28;;;;;;;10.16;100.00;100107.78;4985317;28;20038;-93
2022/05/16 01:23:28;;;;;;;4.53;2.17;;;;;;;10.22;100.00;100107.66;4986827;28;20466;-94
2022/05/16 01:26:36;;;;;;;8.85;2.65;;;;;;;10.16;100.00;100110.41;4990219;28;20463;-93
2022/05/16 01:29:20;;;;;;;8.80;3.97;;;;;;;10.03;100.00;100102.75;5008155;28;20121;-94
2022/05/16 01:32:05;;;;;;;8.07;3.47;;;;;;;9.94;100.00;100107.28;4988590;28;20109;-94
2022/05/16 01:34:50;;;;;;;7.18;2.55;;;;;;;9.94;100.00;100113.38;4990490;28;20061;-94
2022/05/16 01:40:37;;;;;;;8.95;2.85;;;;;;;9.67;100.00;100114.72;4991589;28;20030;-93
2022/05/16 01:43:28;;;;;;;6.72;2.63;;;;;;;9.74;100.00;100116.34;4985041;28;20085;-94
2022/05/16 01:46:25;;;;;;;12.80;4.82;;;;;;;9.59;100.00;100117.47;4984939;28;20507;-94
2022/05/16 01:49:10;;;;;;;11.27;5.00;;;;;;;9.43;100.00;100116.00;5000477;28;20088;-94
2022/05/16 01:51:55;;;;;;;11.07;3.55;;;;;;;9.39;100.00;100122.13;4976299;28;20041;-94
2022/05/16 01:54:39;;;;;;;9.77;3.55;;;;;;;9.35;100.00;100118.72;4978358;28;20396;-94
2022/05/16 01:57:23;;;;;;;6.90;2.67;;;;;;;9.28;100.00;100118.84;4975008;28;20038;-94
2022/05/16 02:00:11;;;;;;;11.00;2.58;;;;;;;9.21;100.00;100125.03;4973771;28;20042;-94
2022/05/16 02:02:59;;;;;;;10.85;4.38;;;;;;;9.11;100.00;100124.31;4976415;28;20041;-93
2022/05/16 02:05:44;;;;;;;9.13;4.18;;;;;;;9.02;100.00;100114.84;4984703;28;20049;-94
2022/05/16 02:08:29;;;;;;;7.63;2.78;;;;;;;8.92;100.00;100125.44;4976315;28;20042;-95
2022/05/16 02:11:15;;;;;;;8.15;3.42;;;;;;;8.91;100.00;100126.34;4983996;28;20038;-94
2022/05/16 02:13:59;;;;;;;5.05;2.35;;;;;;;8.82;100.00;100125.56;4973932;28;20059;-94
2022/05/16 02:16:43;;;;;;;10.50;2.63;;;;;;;8.67;100.00;100120.53;4973944;28;20486;-94
2022/05/16 02:19:27;;;;;;;7.22;3.08;;;;;;;8.64;100.00;100124.06;4972579;28;20046;-93
2022/05/16 02:25:18;;;;;;;5.95;2.40;;;;;;;8.38;100.00;100141.75;4983247;28;20050;-93
2022/05/16 02:28:11;;;;;;;4.93;2.30;;;;;;;8.32;100.00;100123.50;4989766;28;20060;-93
2022/05/16 02:30:56;;;;;;;5.20;2.35;;;;;;;8.34;100.00;100133.06;4975738;28;20062;-94
2022/05/16 02:33:48;;;;;;;4.65;2.10;;;;;;;8.35;100.00;100134.81;4992043;28;20034;-94
2022/05/16 02:36:38;;;;;;;4.55;2.33;;;;;;;8.33;100.00;100135.69;5000476;28;20112;-94
2022/05/16 02:39:24;;;;;;;5.10;2.15;;;;;;;8.25;100.00;100138.38;4999955;28;20669;-93
2022/05/16 02:42:08;;;;;;;4.40;2.20;;;;;;;8.22;100.00;100135.78;4991746;28;20099;-93
2022/05/16 02:44:53;;;;;;;6.45;2.60;;;;;;;8.06;100.00;100144.66;4991407;28;20381;-95
2022/05/16 02:47:38;;;;;;;4.72;1.95;;;;;;;8.01;100.00;100143.84;4986087;28;20065;-93
2022/05/16 02:50:25;;;;;;;7.68;2.70;;;;;;;7.95;100.00;100144.75;4982168;28;20042;-94
2022/05/16 02:53:10;;;;;;;5.28;3.05;;;;;;;7.87;100.00;100138.75;4976044;28;20046;-94
2022/05/16 02:55:54;;;;;;;7.35;2.50;;;;;;;7.89;100.00;100142.19;4972545;28;20038;-93
2022/05/16 02:58:40;;;;;;;5.65;2.90;;;;;;;7.88;100.00;100145.69;4990001;28;20045;-93
2022/05/16 03:01:25;;;;;;;7.03;3.17;;;;;;;7.90;100.00;100139.59;4976105;28;20096;-94
2022/05/16 03:04:09;;;;;;;8.13;3.10;;;;;;;7.83;100.00;100135.31;4985903;28;20046;-95
2022/05/16 03:06:54;;;;;;;7.22;3.17;;;;;;;7.76;100.00;100136.22;4987745;28;20038;-94
2022/05/16 03:09:42;;;;;;;8.35;3.60;;;;;;;7.80;100.00;100140.56;4991152;28;20180;-94
2022/05/16 03:12:26;;;;;;;6.15;2.42;;;;;;;7.70;100.00;100144.97;4991095;28;20034;-94
2022/05/16 03:15:12;;;;;;;6.78;2.70;;;;;;;7.78;100.00;100152.72;4984789;28;20051;-94
2022/05/16 03:17:58;;;;;;;7.22;2.22;;;;;;;7.79;100.00;100145.75;4988714;28;20038;-93
2022/05/16 03:20:43;;;;;;;5.55;2.88;;;;;;;7.73;100.00;100131.03;4987443;28;20065;-93
2022/05/16 03:23:27;;;;;;;5.63;2.70;;;;;;;7.76;100.00;100137.97;4989036;28;20045;-94
2022/05/16 03:26:12;;;;;;;6.20;2.30;;;;;;;7.70;100.00;100138.88;4985924;28;20121;-94
2022/05/16 03:29:01;;;;;;;6.85;2.85;;;;;;;7.81;100.00;100144.88;4986487;28;20037;-94
2022/05/16 03:31:45;;;;;;;6.85;3.25;;;;;;;7.79;100.00;100138.78;4976998;28;20079;-95
2022/05/16 03:34:39;;;;;;;5.97;2.92;;;;;;;7.80;100.00;100131.84;4981539;28;20452;-94
2022/05/16 03:37:23;;;;;;;;;;;;;;;7.81;100.00;100139.66;4975013;28;20117;-94
2022/05/16 03:43:14;;;;;;;6.25;3.20;;;;;;;7.98;100.00;100121.25;4987333;28;20034;-95
2022/05/16 03:45:58;;;;;;;6.10;2.83;;;;;;;7.96;100.00;100123.88;4973617;28;20570;-94
2022/05/16 03:48:43;;;;;;;7.32;2.40;;;;;;;8.19;100.00;100125.41;4988423;28;20046;-94
2022/05/16 03:51:32;;;;;;;8.18;2.92;;;;;;;8.25;100.00;100119.25;4974519;28;20046;-94
2022/05/16 03:54:17;;;;;;;9.00;2.78;;;;;;;8.28;100.00;100122.69;4983337;28;20054;-94
2022/05/16 03:57:02;;;;;;;9.25;3.08;;;;;;;8.47;100.00;100112.06;4967646;28;20069;-94
2022/05/16 03:59:47;;;;;;;6.53;3.03;;;;;;;8.59;100.00;100117.16;4989109;28;20042;-94
2022/05/16 04:02:34;;;;;;;7.47;3.20;;;;;;;8.69;100.00;100112.69;4984660;28;20035;-93
2022/05/16 04:05:23;;;;;;;5.18;2.55;;;;;;;8.79;100.00;100106.47;4977562;28;20046;-94
2022/05/16 04:08:08;;;;;;;6.38;2.70;;;;;;;8.93;100.00;100108.88;4989404;28;20041;-92
2022/05/16 04:10:52;;;;;;;7.43;2.95;;;;;;;9.20;100.00;100110.25;4988404;28;20042;-93
2022/05/16 04:13:37;;;;;;;7.07;3.03;;;;;;;9.27;100.00;100127.56;4986319;28;20042;-92
2022/05/16 04:16:21;;;;;;;9.23;3.13;;;;;;;9.85;100.00;100124.03;4989494;28;20117;-92
2022/05/16 04:19:10;;;;;;;7.75;2.75;;;;;;;10.45;100.00;100125.59;4986572;28;20039;-92
2022/05/16 04:21:54;;;;;;;5.90;2.83;;;;;;;10.94;100.00;100112.34;4992732;28;20121;-92
2022/05/16 04:24:39;;;;;;;6.30;3.25;;;;;;;11.60;100.00;100121.31;4985578;28;20050;-92
2022/05/16 04:27:23;;;;;;;7.20;3.92;;;;;;;11.78;100.00;100114.75;4982962;28;20674;-93
2022/05/16 04:30:09;;;;;;;8.85;3.58;;;;;;;12.23;100.00;100125.00;4985409;28;20383;-92
2022/05/16 04:32:53;;;;;;;9.48;4.03;;;;;;;12.84;100.00;100119.78;4985791;28;20374;-92
2022/05/16 04:35:38;;;;;;;13.98;3.80;;;;;;;13.45;100.00;100122.31;4988664;28;20042;-93
2022/05/16 04:38:22;;;;;;;7.35;4.07;;;;;;;13.86;100.00;100126.25;4973792;28;21054;-94
2022/05/16 04:44:11;;;;;;;7.68;3.40;;;;;;;14.64;100.00;100120.03;5003908;28;20069;-94
2022/05/16 04:46:55;;;;;;;8.15;3.38;;;;;;;14.47;100.00;100123.28;5002861;28;20117;-93
2022/05/16 04:49:40;;;;;;;6.38;3.40;;;;;;;14.04;100.00;100116.88;4988081;28;20038;-92
2022/05/16 04:52:25;;;;;;;6.85;2.80;;;;;;;14.70;100.00;100117.19;4986900;28;20375;-92
2022/05/16 04:55:10;;;;;;;9.23;3.78;;;;;;;14.88;100.00;100118.25;4988711;28;20370;-92
2022/05/16 04:57:56;;;;;;;8.00;2.88;;;;;;;14.73;100.00;100120.56;4982335;28;20121;-92
2022/05/16 05:00:41;;;;;;;7.22;3.33;;;;;;;14.94;100.00;100124.16;4988989;28;20039;-91
2022/05/16 05:03:25;;;;;;;9.18;4.00;;;;;;;15.63;99.48;100126.75;4970582;28;20061;-92
2022/05/16 05:06:09;;;;;;;8.02;3.63;;;;;;;15.45;100.00;100131.91;4986559;28;20053;-92
2022/05/16 05:08:54;;;;;;;5.82;2.72;;;;;;;15.86;97.74;100124.97;4988619;28;20038;-92
2022/05/16 05:14:42;;;;;;;8.70;3.78;;;;;;;15.67;100.00;100126.66;4988186;28;20030;-92
2022/05/16 05:17:26;;;;;;;11.77;4.10;;;;;;;16.45;96.18;100121.53;4990690;28;20038;-93
2022/05/16 05:20:15;;;;;;;13.40;7.20;;;;;;;16.92;91.56;100120.34;4987591;28;20042;-92
2022/05/16 05:23:01;;;;;;;13.90;10.00;;;;;;;16.92;90.52;100120.34;4990668;28;20184;-92
2022/05/16 05:25:46;;;;;;;12.10;8.15;;;;;;;16.66;95.08;100116.19;4975920;28;20042;-92
2022/05/16 05:28:30;;;;;;;14.30;9.90;;;;;;;16.90;91.93;100124.81;4985175;28;20066;-92
2022/05/16 05:31:18;;;;;;;16.85;12.00;;;;;;;17.08;90.13;100129.28;4975327;28;20394;-92
2022/05/16 05:34:02;;;;;;;16.80;12.18;;;;;;;17.18;90.54;100121.75;4984907;28;20070;-93
2022/05/16 05:36:47;;;;;;;22.17;15.93;;;;;;;17.03;87.88;100132.16;4987801;28;20038;-93
2022/05/16 05:39:31;;;;;;;20.65;13.75;;;;;;;17.36;85.15;100131.47;4972558;28;20042;-92
2022/05/16 05:42:16;;;;;;;20.73;12.50;;;;;;;18.07;83.89;100125.34;4977487;28;20468;-92
2022/05/16 05:45:01;;;;;;;12.55;6.55;;;;;;;17.67;81.00;100129.97;4991743;28;20050;-92
2022/05/16 05:47:46;;;;;;;8.07;4.57;;;;;;;18.19;77.20;100125.59;4989143;28;20390;-92
2022/05/16 05:50:30;;;;;;;9.50;5.82;;;;;;;18.45;73.57;100126.03;4973920;28;20042;-92
2022/05/16 05:53:15;;;;;;;11.23;6.78;;;;;;;18.13;74.98;100127.69;4976219;28;20046;-93
2022/05/16 05:55:59;;;;;;;11.48;5.50;;;;;;;18.55;72.50;100129.06;4991052;28;20480;-92
2022/05/16 05:58:46;;;;;;;11.93;7.18;;;;;;;18.60;69.32;100129.69;4986035;28;20042;-92
2022/05/16 06:01:31;;;;;;;7.88;5.60;;;;;;;18.79;71.41;100121.63;4985263;28;20038;-93
2022/05/16 06:04:16;;;;;;;6.82;4.38;;;;;;;19.13;69.75;100131.25;5000124;28;20054;-93
2022/05/16 06:07:00;;;;;;;6.35;3.97;;;;;;;19.71;68.33;100132.44;4972509;28;20410;-92
2022/05/16 06:09:44;;;;;;;10.93;4.28;;;;;;;19.79;65.25;100135.50;4987122;28;20054;-93
2022/05/16 06:12:29;;;;;;;7.75;4.63;;;;;;;19.98;66.37;100132.63;4970317;28;20042;-93
2022/05/16 06:15:14;;;;;;;7.32;4.03;;;;;;;19.76;66.68;100138.34;4991923;28;20042;-93
2022/05/16 06:17:58;;;;;;;5.85;3.70;;;;;;;20.07;68.34;100140.06;4985212;28;20501;-93
2022/05/16 06:20:45;;;;;;;5.65;3.38;;;;;;;20.28;66.11;100136.13;4987787;28;20610;-93
2022/05/16 06:23:29;;;;;;;5.55;3.13;;;;;;;19.98;69.15;100133.47;4986089;28;20038;-92
2022/05/16 06:26:17;;;;;;;4.53;2.50;;;;;;;20.63;65.18;100127.81;4985144;28;20092;-93
2022/05/16 06:29:01;;;;;;;5.07;2.08;;;;;;;21.13;60.69;100118.50;4971001;28;20057;-93
2022/05/16 06:31:46;;;;;;;3.60;1.55;;;;;;;21.32;58.40;100123.50;4985943;28;20045;-93
2022/05/16 06:34:31;;;;;;;3.33;1.40;;;;;;;21.43;58.51;100126.34;4988675;28;20121;-93
2022/05/16 06:37:16;;;;;;;4.03;2.10;;;;;;;21.07;59.73;100116.22;4985985;28;20085;-93
2022/05/16 06:40:02;;;;;;;6.05;1.85;;;;;;;21.60;58.93;100122.56;4976062;28;20042;-93
2022/05/16 06:42:47;;;;;;;5.05;2.25;;;;;;;21.68;57.03;100111.41;4985562;28;20081;-93
2022/05/16 06:45:32;;;;;;;3.58;1.77;;;;;;;22.42;53.63;100119.78;4982017;28;20940;-93
2022/05/16 06:48:18;;;;;;;9.45;1.80;;;;;;;22.07;54.06;100109.69;4983610;28;20405;-95
2022/05/16 06:51:03;;;;;;;8.73;3.15;;;;;;;21.48;54.10;100118.03;4975149;28;20050;-93
2022/05/16 06:53:48;;;;;;;5.10;1.73;;;;;;;21.57;54.97;100122.75;4986676;28;20073;-93
2022/05/16 06:56:32;;;;;;;3.10;1.50;;;;;;;22.13;52.60;100119.91;4973517;28;20057;-93
2022/05/16 06:59:19;;;;;;;3.33;1.40;;;;;;;22.65;49.16;100127.00;4966283;28;20184;-93
2022/05/16 07:02:05;;;;;;;4.45;1.20;;;;;;;22.28;49.31;100123.41;5005891;28;20074;-93
2022/05/16 07:04:50;;;;;;;3.53;1.10;;;;;;;23.10;46.12;100117.56;5004185;28;20149;-93
2022/05/16 07:07:34;;;;;;;4.45;1.10;;;;;;;23.21;46.71;100116.81;4981185;28;20921;-93
2022/05/16 07:10:18;;;;;;;4.43;1.42;;;;;;;23.36;47.02;100114.84;4976560;28;20041;-93
2022/05/16 07:13:03;;;;;;;3.30;1.05;;;;;;;23.23;42.90;100122.03;4986283;28;20137;-93
2022/05/16 07:15:47;;;;;;;2.50;0.93;;;;;;;22.82;44.25;100116.03;4985916;28;20678;-93
2022/05/16 07:18:32;;;;;;;2.85;1.00;;;;;;;23.54;43.17;100109.97;4984670;28;20118;-93
2022/05/16 07:21:16;;;;;;;3.92;0.90;;;;;;;23.10;44.26;100114.06;4988534;28;20038;-93
2022/05/16 07:24:01;;;;;;;2.13;0.90;;;;;;;24.00;42.41;100118.06;4968852;28;20047;-94
2022/05/16 07:29:49;;;;;;;3.78;1.10;;;;;;;23.95;41.31;100119.38;4985151;28;20109;-93
2022/05/16 07:32:35;;;;;;;3.15;1.00;;;;;;;24.68;38.87;100119.09;4984772;28;20029;-93
2022/05/16 07:35:23;;;;;;;2.85;1.02;;;;;;;24.24;40.92;100115.34;4979837;28;20038;-93
2022/05/16 07:38:08;;;;;;;3.35;0.88;;;;;;;24.67;39.18;100114.72;4988677;28;20053;-94
2022/05/16 07:40:53;;;;;;;3.22;0.98;;;;;;;24.29;38.33;100114.16;4988140;28;20030;-93
2022/05/16 07:43:38;;;;;;;3.13;1.10;;;;;;;23.56;40.24;100119.56;4980030;28;20437;-92
2022/05/16 07:46:23;;;;;;;2.90;1.02;;;;;;;24.57;40.20;100112.84;4991127;28;20038;-92
2022/05/16 07:49:07;;;;;;;3.38;0.88;;;;;;;24.83;39.27;100106.31;4990965;28;20469;-92
2022/05/16 07:51:52;;;;;;;4.70;0.80;;;;;;;24.88;39.13;100114.81;4981411;28;20033;-93
2022/05/16 07:54:37;;;;;;;5.50;1.40;;;;;;;25.03;37.58;100110.06;4972707;28;20033;-93
2022/05/16 07:57:22;;;;;;;3.13;0.75;;;;;;;25.39;36.96;100108.09;4992804;28;20397;-94
2022/05/16 08:00:09;;;;;;;3.70;0.80;;;;;;;24.98;38.70;100106.03;4989611;28;20049;-94
2022/05/16 08:02:55;;;;;;;4.15;0.90;;;;;;;24.48;38.50;100106.41;4984975;28;20429;-94
2022/05/16 08:05:40;;;;;;;2.30;0.90;;;;;;;24.75;42.20;100111.41;4973284;28;20038;-95
2022/05/16 08:11:29;;;;;;;2.17;0.63;;;;;;;24.03;40.01;100117.84;4991738;28;20056;-94
2022/05/16 08:14:13;;;;;;;2.53;1.13;;;;;;;23.76;40.27;100122.63;4988339;28;20034;-94
2022/05/16 08:16:59;;;;;;;3.95;1.00;;;;;;;24.60;41.73;100113.50;4991557;28;20100;-93
2022/05/16 08:19:43;;;;;;;2.53;0.75;;;;;;;25.87;37.67;100108.53;4991033;28;20417;-94
2022/05/16 08:22:30;;;;;;;4.75;0.85;;;;;;;26.18;36.11;100105.09;4980574;28;20113;-94
2022/05/16 08:25:14;;;;;;;4.68;1.25;;;;;;;25.59;38.24;100104.59;4976970;28;20042;-94
2022/05/16 08:27:59;;;;;;;2.67;0.98;;;;;;;25.54;40.66;100104.09;4987344;28;20057;-94
2022/05/16 08:30:44;;;;;;;2.22;0.68;;;;;;;24.05;40.55;100104.38;5000089;28;20429;-94
2022/05/16 08:33:29;;;;;;;3.45;0.77;;;;;;;25.40;37.85;100104.41;4988128;28;20038;-93
2022/05/16 08:42:23;;;;;;;4.38;0.90;;;;;;;24.49;40.65;100103.59;4986349;28;20042;-93
2022/05/16 08:45:31;;;;;;;3.13;0.70;;;;;;;25.03;40.38;100104.72;4970845;28;20050;-93
2022/05/16 08:48:24;;;;;;;2.45;0.80;;;;;;;25.87;38.06;100099.66;4981405;28;20034;-93
2022/05/16 08:51:18;;;;;;;3.03;0.70;;;;;;;25.77;37.97;100109.38;4986046;28;20034;-94
2022/05/16 08:54:38;;;;;;;3.35;0.82;;;;;;;25.53;40.14;100102.41;4975863;28;20121;-93
2022/05/16 08:57:38;;;;;;;2.85;0.63;;;;;;;25.27;36.16;100104.56;4973303;28;20045;-96
2022/05/16 09:00:32;;;;;;;2.83;0.73;;;;;;;25.94;36.54;100108.88;4979316;28;20041;-94
2022/05/16 09:03:43;;;;;;;3.25;0.82;;;;;;;26.16;37.49;100096.28;5006378;28;20567;-95
2022/05/16 09:06:39;;;;;;;3.55;1.45;;;;;;;25.97;38.10;100105.09;4990853;28;20109;-95
2022/05/16 09:09:35;;;;;;;4.18;0.70;;;;;;;25.26;38.88;100102.03;4970269;28;20504;-95
2022/05/16 09:12:38;;;;;;;1.50;0.60;;;;;;;26.13;36.06;100115.34;5001623;28;20046;-94
2022/05/16 09:16:01;;;;;;;5.32;0.80;;;;;;;24.58;39.69;100115.44;5015323;28;20039;-94
2022/05/16 09:19:00;;;;;;;;;;;;;;;25.49;38.41;100114.38;4989989;28;20034;-95
2022/05/16 09:22:15;;;;;;;4.05;0.40;;;;;;;25.35;38.00;100104.81;4983072;28;19976;-95
2022/05/16 09:25:09;;;;;;;2.80;0.90;;;;;;;25.62;37.65;100107.03;4988940;28;20108;-95
2022/05/16 09:31:11;;;;;;;1.45;0.50;;;;;;;26.47;37.07;100092.69;4992231;28;20057;-93
2022/05/16 09:33:59;;;;;;;4.72;0.77;;;;;;;26.13;37.83;100099.25;4983689;28;20449;-93
2022/05/16 09:36:49;;;;;;;2.00;0.70;;;;;;;26.60;37.13;100099.69;4993818;28;20044;-92
2022/05/16 09:39:35;;;;;;;3.47;0.70;;;;;;;25.50;35.21;100085.75;4990540;28;20046;-93
2022/05/16 09:42:32;;;;;;;2.67;0.85;;;;;;;24.68;37.25;100091.47;4959619;28;20058;-93
2022/05/16 09:45:25;;;;;;;5.55;0.90;;;;;;;25.97;37.10;100100.56;4990337;28;20051;-93
2022/05/16 09:48:22;;;;;;;2.65;0.68;;;;;;;25.86;36.44;100093.41;4999172;28;20061;-95
2022/05/16 09:51:07;;;;;;;2.65;0.70;;;;;;;26.73;37.24;100079.69;4962065;28;20469;-95
2022/05/16 09:53:52;;;;;;;2.38;0.88;;;;;;;26.28;37.16;100080.00;4990506;28;20134;-95
2022/05/16 09:56:36;;;;;;;4.55;1.10;;;;;;;25.44;37.08;100083.56;4973283;28;20049;-95
2022/05/16 09:59:35;;;;;;;4.10;1.20;;;;;;;26.73;36.74;100081.50;4991297;28;20081;-94
2022/05/16 10:02:25;;;;;;;1.85;0.80;;;;;;;27.01;36.30;100071.88;4977221;28;20444;-95
2022/05/16 10:05:31;;;;;;;1.73;0.68;;;;;;;26.33;37.84;100069.72;4986278;28;20409;-94
2022/05/16 10:08:26;;;;;;;9.07;0.57;;;;;;;25.66;36.80;100080.81;4980392;28;20045;-95
2022/05/16 10:11:17;;;;;;;2.63;0.90;;;;;;;25.70;36.75;100071.50;4992927;28;20033;-95
2022/05/16 10:14:03;;;;;;;3.35;0.90;;;;;;;26.70;35.07;100074.56;4978034;28;20077;-96
2022/05/16 10:16:49;;;;;;;3.60;0.57;;;;;;;25.62;36.22;100074.84;4991006;28;20034;-95
2022/05/16 10:19:38;;;;;;;3.03;0.70;;;;;;;27.20;33.08;100071.94;4990121;28;20042;-95
2022/05/16 10:22:25;;;;;;;1.73;0.68;;;;;;;26.56;35.25;100061.53;4987556;28;20060;-95
2022/05/16 10:25:18;;;;;;;2.25;0.70;;;;;;;26.59;39.01;100063.09;4971362;28;20093;-96
2022/05/16 10:28:03;;;;;;;;;;;;;;;26.70;37.97;100074.56;4990105;28;20129;-95
2022/05/16 10:33:56;;;;;;;4.03;0.77;;;;;;;25.29;39.79;100073.13;4989222;28;20060;-95
2022/05/16 10:36:47;;;;;;;2.33;0.65;;;;;;;26.24;40.58;100066.97;4974551;28;20034;-95
2022/05/16 10:39:34;;;;;;;2.40;0.80;;;;;;;26.95;36.17;100059.81;4976119;28;20039;-95
2022/05/16 10:42:25;;;;;;;3.33;1.20;;;;;;;25.88;36.91;100053.06;4989843;28;20109;-95
2022/05/16 10:45:19;;;;;;;4.35;1.25;;;;;;;25.23;37.10;100057.56;4976280;28;20493;-95
2022/05/16 10:48:14;;;;;;;5.32;1.65;;;;;;;25.22;37.10;100055.00;4988965;28;20038;-94
2022/05/16 10:51:33;;;;;;;2.53;0.77;;;;;;;26.34;36.30;100057.97;5004200;28;20038;-94
2022/05/16 10:54:20;;;;;;;3.28;0.70;;;;;;;26.17;36.27;100044.34;4988731;28;20037;-93
2022/05/16 10:57:13;;;;;;;2.80;0.60;;;;;;;25.50;36.78;100057.09;4989437;28;20046;-95
2022/05/16 11:00:09;;;;;;;5.45;1.08;;;;;;;26.39;36.63;100062.09;4972568;28;20517;-95
2022/05/16 11:03:15;;;;;;;4.53;1.05;;;;;;;25.67;36.58;100047.63;4972684;28;20042;-94
2022/05/16 11:06:16;;;;;;;1.85;1.10;;;;;;;25.79;35.29;100043.91;4989309;28;20041;-95
2022/05/16 11:09:18;;;;;;;3.58;1.08;;;;;;;26.52;36.20;100046.66;4976793;28;20050;-96
2022/05/16 11:12:18;;;;;;;1.90;0.60;;;;;;;27.14;35.48;100047.44;4981926;28;20542;-94
2022/05/16 11:15:31;;;;;;;1.98;0.57;;;;;;;26.66;36.20;100045.44;4982060;28;20125;-96
2022/05/16 11:18:24;;;;;;;2.50;0.88;;;;;;;27.58;35.95;100048.75;4972249;28;20045;-95
2022/05/16 11:21:42;;;;;;;1.60;0.63;;;;;;;26.51;36.00;100043.13;4988579;28;20045;-95
2022/05/16 11:24:50;;;;;;;2.28;0.80;;;;;;;27.37;34.48;100056.09;5004562;28;20038;-96
2022/05/16 11:27:51;;;;;;;3.97;0.82;;;;;;;26.98;33.34;100042.56;4975095;28;20331;-96
2022/05/16 11:30:54;;;;;;;2.30;0.70;;;;;;;26.91;34.26;100046.78;4985998;28;20172;-94
2022/05/16 11:33:53;;;;;;;2.63;0.80;;;;;;;26.51;34.46;100042.25;4953042;28;20062;-96
2022/05/16 11:37:08;;;;;;;2.70;0.77;;;;;;;27.23;36.29;100041.22;5003112;28;20108;-95
2022/05/16 11:40:02;;;;;;;1.67;0.70;;;;;;;26.69;33.35;100035.28;4976000;28;20039;-95
2022/05/16 11:42:59;;;;;;;2.00;0.63;;;;;;;25.96;34.58;100021.03;4979899;28;20042;-95
2022/05/16 11:46:27;;;;;;;2.30;0.70;;;;;;;26.29;34.03;100022.66;4979182;28;20109;-96
2022/05/16 11:49:20;;;;;;;1.27;0.60;;;;;;;26.15;35.27;100024.81;4992043;28;20038;-95
2022/05/16 11:52:04;;;;;;;4.05;1.02;;;;;;;26.61;34.25;100018.13;4989570;28;20113;-94
2022/05/16 11:54:57;;;;;;;2.42;0.70;;;;;;;26.96;33.96;100014.97;4988738;28;20062;-96
2022/05/16 12:01:26;;;;;;;2.90;0.82;;;;;;;27.09;32.95;100020.09;4989653;28;19926;-95
2022/05/16 12:04:16;;;;;;;1.70;0.90;;;;;;;26.83;33.16;100007.19;4989003;28;20047;-95
2022/05/16 12:07:02;;;;;;;4.43;1.23;;;;;;;27.60;33.21;100002.88;4975688;28;20069;-94
2022/05/16 12:09:56;;;;;;;2.92;0.85;;;;;;;27.69;33.14;100002.03;4991889;28;20038;-95
2022/05/16 12:12:44;;;;;;;3.15;0.52;;;;;;;27.16;33.30;99997.06;4984333;28;20034;-96
2022/05/16 12:15:30;;;;;;;1.40;0.55;;;;;;;27.22;32.64;100001.88;4978310;28;20041;-96
2022/05/16 12:18:39;;;;;;;1.80;0.60;;;;;;;26.83;31.89;100000.94;4980191;28;20041;-96
2022/05/16 12:21:32;;;;;;;1.88;0.65;;;;;;;27.01;33.44;99991.25;5010901;28;20150;-96
2022/05/16 12:24:24;;;;;;;2.88;0.63;;;;;;;27.08;33.02;99992.38;4981909;28;20046;-95
2022/05/16 12:27:16;;;;;;;4.03;0.65;;;;;;;26.80;32.99;99975.22;4978123;28;20061;-96
2022/05/16 12:30:06;;;;;;;2.20;0.50;;;;;;;26.66;32.82;99975.63;5004210;28;20041;-96
2022/05/16 12:32:53;;;;;;;1.88;0.68;;;;;;;27.59;33.53;99975.16;4976732;28;20493;-96
2022/05/16 12:35:43;;;;;;;1.50;0.75;;;;;;;27.29;34.02;99964.53;4999220;28;20046;-96
2022/05/16 12:38:29;;;;;;;1.55;0.77;;;;;;;27.71;32.33;99963.22;4989727;28;20057;-95
2022/05/16 12:41:44;;;;;;;2.47;0.73;;;;;;;27.22;33.55;99954.34;4977637;28;20041;-95
2022/05/16 12:44:42;;;;;;;2.80;0.70;;;;;;;27.62;33.55;99961.38;4991981;28;20043;-94
2022/05/16 12:48:09;;;;;;;3.10;0.68;;;;;;;27.36;32.91;99971.88;4976030;28;20378;-94
2022/05/16 12:51:21;;;;;;;1.15;0.40;;;;;;;26.04;32.90;99962.22;4978206;28;20040;-95
2022/05/16 12:54:15;;;;;;;1.42;0.65;;;;;;;26.89;33.64;99963.63;4971834;28;20113;-94
2022/05/16 12:57:25;;;;;;;7.07;0.82;;;;;;;26.36;33.86;99955.84;4976000;28;20037;-94
2022/05/16 13:00:18;;;;;;;4.68;0.95;;;;;;;26.69;33.43;99956.53;4991971;28;20387;-93
2022/05/16 13:03:38;;;;;;;3.15;0.80;;;;;;;26.80;32.91;99957.25;4992652;28;20034;-94
2022/05/16 13:06:46;;;;;;;2.55;0.70;;;;;;;26.02;34.17;99939.16;4980498;28;20049;-95
2022/05/16 13:09:50;;;;;;;4.38;0.98;;;;;;;26.83;33.85;99950.75;4959535;28;20092;-94
2022/05/16 13:12:48;;;;;;;2.95;1.42;;;;;;;25.77;33.99;99948.47;5004286;28;20054;-94
2022/05/16 13:15:50;;;;;;;4.60;1.00;;;;;;;25.77;34.82;99941.28;4990687;28;20042;-95
2022/05/16 13:18:44;;;;;;;5.78;0.88;;;;;;;26.06;35.17;99929.88;5019254;28;20038;-95
2022/05/16 13:21:54;;;;;;;3.30;0.82;;;;;;;25.57;34.89;99940.28;4989996;28;20493;-94
2022/05/16 13:24:39;;;;;;;3.20;1.00;;;;;;;25.22;34.94;99935.28;4980915;28;20084;-93
2022/05/16 13:30:32;;;;;;;5.28;1.40;;;;;;;25.41;34.42;99924.69;4992359;28;20038;-94
2022/05/16 13:33:22;;;;;;;3.65;0.82;;;;;;;25.23;35.55;99928.06;4998576;28;20042;-93
2022/05/16 13:36:21;;;;;;;3.42;0.68;;;;;;;24.70;36.65;99926.19;4984920;28;20468;-93
2022/05/16 13:39:12;;;;;;;5.03;1.10;;;;;;;25.09;35.46;99930.06;4985129;28;20041;-93
2022/05/16 13:42:00;;;;;;;3.08;1.05;;;;;;;24.63;35.55;99923.13;4985030;28;20050;-93
2022/05/16 13:44:45;;;;;;;2.47;0.60;;;;;;;24.81;36.39;99925.28;4988676;28;20044;-94
2022/05/16 13:47:31;;;;;;;2.53;0.77;;;;;;;24.81;34.69;99922.59;4967967;28;20053;-93
2022/05/16 13:50:25;;;;;;;5.75;0.95;;;;;;;24.15;36.07;99918.06;4975448;28;20043;-94
2022/05/16 13:53:18;;;;;;;3.00;1.17;;;;;;;24.47;36.78;99911.97;4973107;28;20401;-94